CPX330 Details

Departure: Lester B. Pearson International Airport (CYYZ)
Arrival: Washington Dulles International Airport (KIAD) at N/A
Route: RIGUS2 PSB MAPEL2
Notes:


Current Weather Information
CYYZ 230800Z 18012KT 15SM SCT080 08/04 A2975 RMK AC3 SLP079
KIAD 230852Z 00000KT 10SM CLR 07/06 A2994 RMK AO2 SLP138 T00720061 53017 $